Time;durP1;ratioP1;P1;durP2;ratioP2;P2;SDS_P1;SDS_P2;PMS_P1;PMS_P2;Temp;Humidity;BMP_temperature;BMP_pressure;BME280_temperature;BME280_humidity;BME280_pressure;Samples;Min_cycle;Max_cycle;Signal;HPM_P1;HPM_P2
2021/12/12 02:18:27;;;;;;;4.10;2.45;;;;;;;17.03;59.97;101847.53;5804883;23;20033;-79
2021/12/12 02:21:08;;;;;;;3.95;2.50;;;;;;;17.01;60.07;101848.38;4846476;29;20034;-79
2021/12/12 02:37:08;;;;;;;4.43;2.13;;;;;;;17.02;59.75;101829.31;4878835;29;20040;-84
2021/12/12 02:39:35;;;;;;;3.33;2.28;;;;;;;17.04;59.64;101831.06;4883149;29;20033;-83
2021/12/12 02:42:07;;;;;;;5.45;2.45;;;;;;;17.00;59.74;101829.28;4873991;29;20030;-83
2021/12/12 02:44:39;;;;;;;4.47;2.33;;;;;;;16.99;59.71;101817.16;4872065;29;20030;-83
2021/12/12 02:47:12;;;;;;;3.85;2.40;;;;;;;16.98;59.75;101823.19;4871734;29;20032;-83
2021/12/12 02:49:55;;;;;;;3.33;2.10;;;;;;;17.00;59.63;101823.22;4884611;29;20029;-84
2021/12/12 02:52:31;;;;;;;3.88;2.10;;;;;;;17.03;59.55;101829.31;4877800;29;20147;-83
2021/12/12 02:55:00;;;;;;;4.15;2.28;;;;;;;17.00;59.80;101836.22;4870508;29;20035;-83
2021/12/12 02:57:26;;;;;;;3.13;2.20;;;;;;;17.01;59.53;101835.38;4871190;29;20093;-84
2021/12/12 02:59:55;;;;;;;3.72;2.28;;;;;;;17.04;59.59;101823.25;4861399;29;20005;-83
2021/12/12 03:02:27;;;;;;;3.92;2.20;;;;;;;17.00;59.67;101818.88;5009638;23;20065;-83
2021/12/12 03:04:58;;;;;;;3.13;2.05;;;;;;;17.01;59.56;101809.38;4878211;29;20030;-83
2021/12/12 03:07:45;;;;;;;3.35;2.22;;;;;;;17.02;59.45;101805.91;4876121;29;20384;-83
2021/12/12 03:13:51;;;;;;;4.80;2.33;;;;;;;17.03;59.55;101821.53;4873894;29;20503;-83
2021/12/12 03:20:31;;;;;;;4.57;2.15;;;;;;;17.03;59.11;101818.94;4886315;29;20032;-83
2021/12/12 03:23:09;;;;;;;2.83;1.98;;;;;;;17.04;59.31;101820.66;5566444;23;20106;-86
2021/12/12 03:25:39;;;;;;;3.38;1.98;;;;;;;17.05;59.21;101808.53;4982857;23;20041;-83
2021/12/12 03:28:08;;;;;;;3.85;2.13;;;;;;;17.01;59.27;101815.44;5175087;23;20004;-83
2021/12/12 03:30:34;;;;;;;3.90;2.13;;;;;;;17.01;59.45;101817.19;4884919;29;20033;-84
2021/12/12 03:38:10;;;;;;;3.33;2.10;;;;;;;17.02;59.44;101819.75;4931154;23;20121;-83
2021/12/12 03:40:39;;;;;;;2.83;1.90;;;;;;;17.06;59.11;101818.94;4881859;29;20042;-80
2021/12/12 03:43:06;;;;;;;3.08;1.88;;;;;;;17.03;58.99;101816.31;4860183;29;20034;-79
2021/12/12 03:45:34;;;;;;;3.25;1.98;;;;;;;17.06;59.04;101813.72;4860265;29;20116;-80
2021/12/12 03:48:22;;;;;;;3.05;1.77;;;;;;;17.03;59.26;101803.31;4860398;29;20108;-79
2021/12/12 03:50:50;;;;;;;2.80;1.80;;;;;;;17.08;59.00;101808.56;4859873;29;20035;-79
2021/12/12 03:53:16;;;;;;;3.33;1.77;;;;;;;17.07;59.14;101799.00;4859970;29;20035;-79
2021/12/12 03:55:43;;;;;;;3.30;2.10;;;;;;;17.05;59.13;101798.16;4860219;29;20029;-79
2021/12/12 03:58:11;;;;;;;3.63;1.98;;;;;;;17.05;59.00;101808.53;4844754;29;20042;-79
2021/12/12 04:00:54;;;;;;;3.20;2.10;;;;;;;17.06;58.98;101808.53;4845047;29;20038;-79
2021/12/12 04:03:20;;;;;;;3.33;2.00;;;;;;;17.11;58.94;101815.50;4860493;29;20089;-79
2021/12/12 04:05:53;;;;;;;2.95;1.95;;;;;;;17.12;58.72;101801.66;4860977;29;20034;-80
2021/12/12 04:08:25;;;;;;;3.58;2.10;;;;;;;17.10;58.79;101805.97;4862200;29;20026;-80
2021/12/12 04:10:51;;;;;;;2.53;1.88;;;;;;;17.06;58.97;101805.94;4862675;29;20061;-79
2021/12/12 04:13:17;;;;;;;2.65;1.90;;;;;;;17.04;59.30;101812.00;4871081;29;20021;-84
2021/12/12 04:15:42;;;;;;;2.97;1.90;;;;;;;17.07;59.03;101809.41;4873162;29;20018;-83
2021/12/12 04:18:08;;;;;;;3.40;1.90;;;;;;;17.09;58.82;101801.63;4888427;29;20033;-83
2021/12/12 04:20:37;;;;;;;3.20;2.00;;;;;;;17.08;58.62;101802.50;4888312;29;20009;-83
2021/12/12 04:23:13;;;;;;;2.75;1.67;;;;;;;17.06;59.06;101798.13;4888120;29;20006;-83
2021/12/12 04:25:39;;;;;;;3.08;2.00;;;;;;;17.07;59.08;101799.00;4870043;29;20037;-79
2021/12/12 04:28:07;;;;;;;3.33;1.88;;;;;;;17.06;58.68;101798.13;4863742;29;20464;-79
2021/12/12 04:30:32;;;;;;;3.80;1.90;;;;;;;17.11;58.40;101805.09;4863564;29;20106;-79
2021/12/12 04:32:58;;;;;;;2.92;1.80;;;;;;;17.07;58.63;101801.59;4844968;29;20080;-80
2021/12/12 04:35:25;;;;;;;2.88;1.73;;;;;;;17.07;58.61;101814.59;4845391;29;20132;-79
2021/12/12 04:37:53;;;;;;;3.17;1.98;;;;;;;17.10;58.45;101811.19;4844647;29;20056;-79
2021/12/12 04:40:21;;;;;;;2.30;1.80;;;;;;;17.08;58.49;101811.16;4846248;29;20038;-79
2021/12/12 04:42:51;;;;;;;2.58;1.80;;;;;;;17.09;58.79;101812.03;4846076;29;20041;-79
2021/12/12 04:45:26;;;;;;;3.15;1.80;;;;;;;17.10;58.48;101813.78;4844669;29;20030;-79
2021/12/12 04:51:12;;;;;;;2.65;1.83;;;;;;;17.10;58.44;101814.66;4845920;29;20109;-79
2021/12/12 04:53:54;;;;;;;2.20;1.67;;;;;;;17.11;58.41;101805.09;4859918;29;20486;-79
2021/12/12 04:56:29;;;;;;;2.20;1.70;;;;;;;17.11;58.49;101802.50;4859888;29;20544;-79
2021/12/12 04:59:01;;;;;;;2.38;1.85;;;;;;;17.12;58.55;101812.94;4859825;29;20082;-79
2021/12/12 05:01:40;;;;;;;2.42;1.90;;;;;;;17.10;58.61;101827.66;4859818;29;20034;-79
2021/12/12 05:04:10;;;;;;;2.45;1.70;;;;;;;17.11;58.37;101811.16;4845783;29;20113;-79
2021/12/12 05:06:44;;;;;;;3.13;1.77;;;;;;;17.13;58.28;101822.47;4859762;29;20094;-80
2021/12/12 05:09:18;;;;;;;2.88;1.70;;;;;;;17.13;57.95;101812.06;4844419;29;20032;-79
2021/12/12 05:12:09;;;;;;;2.78;1.80;;;;;;;17.13;58.33;101814.66;4844190;29;20033;-80
2021/12/12 05:14:39;;;;;;;2.50;1.80;;;;;;;17.13;58.30;101812.06;4859572;29;20431;-79
2021/12/12 05:17:21;;;;;;;2.70;1.80;;;;;;;17.13;58.35;101817.25;4844362;29;20062;-79
2021/12/12 05:19:52;;;;;;;2.70;1.88;;;;;;;17.15;58.26;101825.94;4859351;29;20036;-79
2021/12/12 05:22:26;;;;;;;3.35;1.75;;;;;;;17.15;58.21;101818.13;4845382;29;20515;-79
2021/12/12 05:24:53;;;;;;;4.15;1.70;;;;;;;17.16;58.08;101821.59;4858687;29;20116;-79
2021/12/12 05:27:22;;;;;;;2.88;1.70;;;;;;;17.12;58.46;101820.72;4845252;29;20113;-79
2021/12/12 05:29:58;;;;;;;2.47;1.83;;;;;;;17.13;58.51;101806.00;4843968;29;20038;-79
2021/12/12 05:32:26;;;;;;;4.15;1.85;;;;;;;17.12;58.32;101809.47;4846778;29;20030;-82
2021/12/12 05:34:54;;;;;;;3.15;1.80;;;;;;;17.10;58.46;101801.63;4868665;29;20010;-83
2021/12/12 05:37:21;;;;;;;2.95;1.80;;;;;;;17.12;58.23;101809.47;5069157;23;20028;-83
2021/12/12 05:39:47;;;;;;;2.63;1.63;;;;;;;17.12;58.34;101810.31;4868247;29;20037;-83
2021/12/12 05:42:15;;;;;;;2.70;1.80;;;;;;;17.12;58.11;101820.72;4868478;29;20036;-83
2021/12/12 05:44:48;;;;;;;2.70;1.80;;;;;;;17.13;58.28;101825.06;4868322;29;20018;-83
2021/12/12 05:49:48;;;;;;;2.95;2.00;;;;;;;17.12;58.13;101825.06;5343489;23;20312;-84
2021/12/12 05:54:52;;;;;;;4.38;1.88;;;;;;;17.14;58.19;101831.16;5534395;23;20096;-84
2021/12/12 05:57:23;;;;;;;2.55;1.67;;;;;;;17.13;57.95;101835.47;4886681;29;20034;-83
2021/12/12 05:59:51;;;;;;;3.58;1.73;;;;;;;17.14;58.13;101841.56;4886397;29;20096;-83
2021/12/12 06:02:17;;;;;;;3.30;1.70;;;;;;;17.16;58.29;101837.22;4886477;29;20016;-83
2021/12/12 06:04:43;;;;;;;2.40;1.67;;;;;;;17.16;58.12;101839.81;4886495;29;20025;-83
2021/12/12 06:09:45;;;;;;;3.22;1.77;;;;;;;17.21;57.56;101836.41;5435243;23;20053;-83
2021/12/12 06:14:47;;;;;;;2.72;1.90;;;;;;;17.27;57.67;101846.84;5818845;23;20014;-84
2021/12/12 06:17:16;;;;;;;2.20;1.70;;;;;;;17.31;57.71;101857.28;4886329;29;20106;-83
2021/12/12 06:19:45;;;;;;;2.28;1.58;;;;;;;17.28;57.79;101845.97;4886184;29;20018;-83
2021/12/12 06:27:22;;;;;;;3.47;2.20;;;;;;;17.32;57.51;101859.91;5339198;23;20037;-83
2021/12/12 07:14:48;;;;;;;2.78;1.60;;;;;;;17.59;57.17;101876.56;4953947;23;20049;-86
2021/12/12 07:30:28;;;;;;;3.00;1.33;;;;;;;17.57;58.06;101871.38;4875081;29;20101;-81
2021/12/12 07:33:04;;;;;;;2.42;1.35;;;;;;;17.58;58.16;101883.50;4853337;29;20455;-83
2021/12/12 07:35:32;;;;;;;2.70;1.55;;;;;;;17.61;58.18;101886.13;4862443;29;20120;-80
2021/12/12 07:37:58;;;;;;;3.28;1.50;;;;;;;17.61;58.19;101883.53;4861976;29;20585;-81
2021/12/12 07:40:24;;;;;;;2.92;1.50;;;;;;;17.61;58.09;101890.47;4861208;29;20085;-80
2021/12/12 07:42:51;;;;;;;4.07;1.52;;;;;;;17.61;58.23;101899.13;4861257;29;20037;-81
2021/12/12 07:45:20;;;;;;;2.92;1.40;;;;;;;17.64;58.10;101899.19;4830772;29;20041;-80
2021/12/12 07:47:48;;;;;;;2.17;1.60;;;;;;;17.65;58.29;101900.03;4860331;29;20108;-80
2021/12/12 07:50:18;;;;;;;3.58;1.55;;;;;;;17.65;58.27;101913.06;4861113;29;20441;-81
2021/12/12 07:52:45;;;;;;;3.65;1.48;;;;;;;17.68;58.12;101913.06;4862059;29;20061;-81
2021/12/12 07:55:13;;;;;;;2.45;1.40;;;;;;;17.67;58.29;101913.94;4845762;29;20060;-81
2021/12/12 07:57:39;;;;;;;5.35;1.52;;;;;;;17.68;58.29;101926.09;4861805;29;20037;-80
2021/12/12 08:00:12;;;;;;;2.45;1.58;;;;;;;17.67;58.63;101916.56;4861597;29;20089;-80
2021/12/12 08:02:41;;;;;;;2.70;1.63;;;;;;;17.68;58.07;101924.38;4862300;29;20037;-80
2021/12/12 08:05:08;;;;;;;2.70;1.30;;;;;;;17.69;58.47;101927.84;4860853;29;20052;-80
2021/12/12 08:07:36;;;;;;;2.28;1.50;;;;;;;17.68;58.39;101928.69;4861180;29;20038;-80
2021/12/12 08:10:06;;;;;;;2.95;1.55;;;;;;;17.68;58.35;101939.09;4861008;29;20029;-80
2021/12/12 08:12:31;;;;;;;3.90;1.40;;;;;;;17.68;58.35;101936.50;4861421;29;20029;-81
2021/12/12 08:14:57;;;;;;;1.95;1.38;;;;;;;17.71;58.30;101939.16;4862309;29;20105;-82
2021/12/12 08:17:24;;;;;;;2.75;1.48;;;;;;;17.69;58.53;101941.72;4861160;29;20429;-81
2021/12/12 08:19:50;;;;;;;2.42;1.48;;;;;;;17.70;58.37;101953.00;4861417;29;20037;-81
2021/12/12 08:22:19;;;;;;;1.90;1.23;;;;;;;17.72;58.50;101951.28;4830810;29;20037;-81
2021/12/12 08:24:45;;;;;;;2.53;1.45;;;;;;;17.71;58.05;101952.16;4861289;29;20358;-80
2021/12/12 08:27:12;;;;;;;2.58;1.60;;;;;;;17.69;58.39;101959.94;4861187;29;20036;-80
2021/12/12 08:29:39;;;;;;;2.80;1.55;;;;;;;17.72;58.38;101955.63;4860746;29;20372;-81
2021/12/12 08:32:10;;;;;;;3.20;1.50;;;;;;;17.71;58.15;101954.75;4861882;29;20084;-81
2021/12/12 08:34:36;;;;;;;2.65;1.20;;;;;;;17.72;58.38;101961.69;4862171;29;20026;-80
2021/12/12 08:37:04;;;;;;;3.55;1.60;;;;;;;17.74;58.18;101967.78;4861124;29;20124;-80
2021/12/12 08:39:31;;;;;;;2.45;1.20;;;;;;;17.76;58.34;101966.06;4863177;29;20025;-80
2021/12/12 08:42:01;;;;;;;2.53;1.20;;;;;;;17.73;58.51;101973.88;4873992;29;20124;-82
2021/12/12 08:44:30;;;;;;;2.80;1.40;;;;;;;17.81;58.50;101971.31;4872011;29;20036;-85
2021/12/12 08:47:37;;;;;;;2.72;1.10;;;;;;;17.75;58.64;101974.75;4876704;29;20484;-84
2021/12/12 08:50:06;;;;;;;2.50;1.30;;;;;;;17.74;58.47;101983.41;4863155;29;20061;-80
2021/12/12 08:52:37;;;;;;;18.02;4.57;;;;;;;17.72;58.45;101972.09;4862181;29;20380;-80
2021/12/12 08:55:15;;;;;;;19.65;5.47;;;;;;;17.71;58.42;101979.94;4861535;29;20046;-79
2021/12/12 08:57:52;;;;;;;23.13;5.53;;;;;;;17.71;58.42;101990.34;4863527;29;20029;-80
2021/12/12 09:00:27;;;;;;;20.42;4.45;;;;;;;17.69;58.51;101990.31;4853243;29;20037;-81
2021/12/12 09:02:58;;;;;;;10.68;4.03;;;;;;;17.66;58.67;101985.97;4872928;29;20104;-81
2021/12/12 09:05:31;;;;;;;14.02;3.80;;;;;;;17.64;59.06;101998.09;4872522;29;20033;-80
2021/12/12 09:08:05;;;;;;;11.23;3.95;;;;;;;17.66;59.08;102003.31;4863650;29;20022;-79
2021/12/12 09:11:11;;;;;;;11.43;3.80;;;;;;;17.65;58.96;101999.81;4864576;29;20034;-80
2021/12/12 09:13:49;;;;;;;9.27;3.40;;;;;;;17.64;59.25;102010.25;4842744;29;20056;-79
2021/12/12 09:16:24;;;;;;;8.45;3.60;;;;;;;17.65;58.91;102009.38;4863753;29;20095;-80
2021/12/12 09:18:56;;;;;;;8.75;3.15;;;;;;;17.65;58.96;102011.97;4865590;29;20034;-80
2021/12/12 09:21:27;;;;;;;9.20;3.33;;;;;;;17.64;59.23;102011.13;4865809;29;20029;-80
2021/12/12 09:24:10;;;;;;;7.30;2.97;;;;;;;17.64;59.04;102018.06;4865126;29;20477;-80
2021/12/12 09:26:41;;;;;;;6.07;3.03;;;;;;;17.64;59.33;102013.72;4864546;29;20396;-79
2021/12/12 09:29:17;;;;;;;9.27;2.97;;;;;;;17.64;58.98;102020.66;4864984;29;20374;-79
2021/12/12 09:31:49;;;;;;;8.82;3.05;;;;;;;17.66;59.01;102026.75;4863328;29;20034;-79
2021/12/12 09:34:30;;;;;;;6.15;2.67;;;;;;;17.65;58.86;102020.66;4862939;29;20170;-79
2021/12/12 09:37:00;;;;;;;7.38;3.00;;;;;;;17.66;58.95;102026.75;4863199;29;20036;-79
2021/12/12 09:39:29;;;;;;;6.25;2.67;;;;;;;17.66;59.13;102018.94;4865302;29;20025;-79
2021/12/12 09:42:07;;;;;;;7.22;2.60;;;;;;;17.66;58.98;102013.75;4864348;29;20108;-80
2021/12/12 09:44:51;;;;;;;8.20;2.75;;;;;;;17.66;58.88;102035.44;4863317;29;20075;-80
2021/12/12 09:54:26;;;;;;;7.38;2.63;;;;;;;17.67;59.04;102031.09;4864368;29;20112;-79
2021/12/12 09:57:00;;;;;;;5.45;2.30;;;;;;;17.68;58.87;102028.50;4822626;29;20037;-80
2021/12/12 09:59:44;;;;;;;5.72;2.10;;;;;;;17.69;58.79;102034.56;4862451;29;20468;-80
2021/12/12 10:02:35;;;;;;;4.93;2.15;;;;;;;17.70;58.70;102033.69;4864101;29;20121;-80
2021/12/12 10:05:21;;;;;;;4.22;2.13;;;;;;;17.70;58.81;102036.31;4855117;29;20488;-80
2021/12/12 10:08:13;;;;;;;4.60;2.10;;;;;;;17.71;58.76;102035.47;4863473;29;20112;-79
2021/12/12 10:10:38;;;;;;;6.25;2.72;;;;;;;17.71;59.16;102035.47;4862215;29;20036;-80
2021/12/12 10:13:19;;;;;;;5.10;2.17;;;;;;;17.71;58.53;102035.47;4861605;29;20477;-80
2021/12/12 10:16:36;;;;;;;4.18;1.90;;;;;;;17.72;58.53;102036.34;4866641;29;20021;-86
2021/12/12 10:19:44;;;;;;;4.22;1.90;;;;;;;17.72;58.80;102038.94;4845040;29;20190;-87
2021/12/12 10:29:10;;;;;;;4.70;2.05;;;;;;;17.81;58.45;102028.59;5229936;23;20065;-87
2021/12/12 10:31:42;;;;;;;3.78;1.80;;;;;;;17.84;58.51;102023.47;4882545;29;20049;-86
2021/12/12 10:39:47;;;;;;;12.18;2.20;;;;;;;17.37;65.59;102036.88;5145926;27;20423;-83
2021/12/12 10:42:17;;;;;;;6.10;1.92;;;;;;;17.31;64.94;102032.50;5101710;28;20054;-82
2021/12/12 10:44:48;;;;;;;9.25;2.15;;;;;;;17.24;63.45;102031.50;5098824;28;20030;-81
2021/12/12 10:47:39;;;;;;;10.55;2.17;;;;;;;17.18;62.67;102038.38;5114329;28;20456;-81
2021/12/12 10:50:13;;;;;;;5.15;2.25;;;;;;;17.16;63.92;102032.28;5093162;28;20046;-82
2021/12/12 10:53:01;;;;;;;6.35;2.63;;;;;;;17.16;62.94;102043.59;5094285;28;20023;-82
2021/12/12 10:56:05;;;;;;;4.38;2.38;;;;;;;17.14;63.81;102041.84;5112685;28;20024;-83
2021/12/12 10:58:36;;;;;;;;;;;;;;;17.12;63.01;102044.41;5085440;28;20097;-82
2021/12/12 11:01:33;;;;;;;4.10;2.40;;;;;;;17.12;63.54;102047.00;5097599;28;19914;-81
2021/12/12 11:04:29;;;;;;;6.78;2.53;;;;;;;17.10;63.80;102051.31;5096999;28;20036;-83
2021/12/12 11:07:06;;;;;;;5.22;2.55;;;;;;;17.08;63.80;102054.75;5106877;28;20028;-83
2021/12/12 11:09:50;;;;;;;4.63;2.40;;;;;;;17.08;63.91;102054.75;5123726;28;20031;-83
2021/12/12 11:12:42;;;;;;;6.28;2.45;;;;;;;17.08;64.77;102059.97;5107593;28;20030;-83
2021/12/12 11:15:13;;;;;;;4.63;2.70;;;;;;;17.10;63.93;102047.84;5095148;28;20106;-82
2021/12/12 11:17:44;;;;;;;4.07;2.20;;;;;;;17.10;64.05;102055.66;5106650;28;20460;-83
2021/12/12 11:20:52;;;;;;;5.32;2.40;;;;;;;17.11;63.85;102057.38;5125469;28;20020;-83
2021/12/12 11:23:39;;;;;;;5.03;2.35;;;;;;;17.11;63.95;102055.66;5097444;28;20104;-83
2021/12/12 11:26:14;;;;;;;3.63;2.20;;;;;;;17.11;64.34;102055.66;5108821;28;20023;-83
2021/12/12 11:28:47;;;;;;;4.70;2.22;;;;;;;17.18;64.31;102056.59;5115006;28;20063;-85
2021/12/12 11:31:21;;;;;;;7.37;2.23;;;;;;;17.22;63.48;102058.38;5112786;28;20028;-83
2021/12/12 11:33:50;;;;;;;5.22;2.28;;;;;;;17.20;63.37;102060.97;5109329;28;20043;-84
2021/12/12 11:36:29;;;;;;;4.13;2.45;;;;;;;17.26;64.24;102062.75;5114364;28;20034;-83
2021/12/12 11:39:13;;;;;;;6.85;2.75;;;;;;;17.23;64.53;102066.22;5108799;28;20032;-84
2021/12/12 11:41:55;;;;;;;4.95;2.55;;;;;;;17.18;64.18;102067.00;5113458;28;20036;-84
2021/12/12 11:44:47;;;;;;;3.67;2.38;;;;;;;17.14;64.57;102068.72;5110657;28;20078;-84
2021/12/12 11:47:32;;;;;;;4.53;2.40;;;;;;;17.14;64.22;102079.13;5112443;28;20024;-83
2021/12/12 11:50:08;;;;;;;2.95;1.90;;;;;;;17.15;64.48;102082.56;5104420;28;20029;-83
2021/12/12 11:53:20;;;;;;;5.38;2.20;;;;;;;17.14;64.57;102071.31;5099976;28;20013;-83
2021/12/12 11:56:05;;;;;;;6.95;2.15;;;;;;;17.15;64.47;102070.44;5096480;28;20020;-84
2021/12/12 11:58:37;;;;;;;4.40;2.20;;;;;;;17.13;65.20;102079.94;5099717;28;20087;-84
2021/12/12 12:01:38;;;;;;;3.67;2.28;;;;;;;17.13;64.03;102073.88;5100086;28;20023;-84
2021/12/12 12:04:13;;;;;;;6.43;2.20;;;;;;;17.14;64.62;102079.13;5099680;28;20014;-83
2021/12/12 12:07:04;;;;;;;3.35;1.95;;;;;;;17.17;65.16;102083.47;5099753;28;20016;-84
2021/12/12 12:09:55;;;;;;;3.95;1.95;;;;;;;17.16;64.55;102082.59;5099123;28;20016;-83
2021/12/12 12:12:55;;;;;;;4.38;2.30;;;;;;;17.20;64.77;102096.50;5099150;28;20016;-84
2021/12/12 12:15:26;;;;;;;5.20;2.00;;;;;;;17.17;64.73;102093.88;5100012;28;20028;-83
2021/12/12 12:18:22;;;;;;;4.60;2.05;;;;;;;17.18;64.66;102090.41;5097557;28;20025;-83
2021/12/12 12:21:00;;;;;;;3.10;1.70;;;;;;;17.25;64.21;102100.91;5096150;28;20063;-83
2021/12/12 12:27:02;;;;;;;2.67;1.70;;;;;;;17.36;64.22;102101.03;5095128;28;20021;-84
2021/12/12 12:29:28;;;;;;;3.00;1.60;;;;;;;17.34;64.84;102087.16;5084991;28;20074;-80
2021/12/12 12:32:15;;;;;;;5.47;2.10;;;;;;;17.36;65.03;102090.63;5075185;28;20020;-80
2021/12/12 12:34:49;;;;;;;4.70;1.70;;;;;;;17.38;65.30;102091.53;5078680;28;20055;-80
2021/12/12 12:38:06;;;;;;;4.50;1.77;;;;;;;17.39;64.77;102085.47;5075685;28;20020;-80
2021/12/12 12:40:36;;;;;;;3.60;1.63;;;;;;;17.42;65.34;102087.22;5031901;28;20060;-81
2021/12/12 12:43:39;;;;;;;3.25;1.80;;;;;;;17.43;65.26;102088.97;5076172;28;20028;-81
2021/12/12 12:46:23;;;;;;;3.20;1.73;;;;;;;17.43;64.97;102084.63;5076932;28;20031;-82
2021/12/12 12:49:24;;;;;;;3.10;1.83;;;;;;;17.44;65.50;102096.81;5075528;28;20023;-81
2021/12/12 12:52:15;;;;;;;3.08;1.70;;;;;;;17.45;65.38;102097.69;5076087;28;20033;-82
2021/12/12 12:55:02;;;;;;;2.83;1.77;;;;;;;17.44;65.56;102098.50;5076346;28;20025;-81
2021/12/12 12:57:37;;;;;;;4.78;1.70;;;;;;;17.43;66.20;102102.84;5076347;28;20046;-82
2021/12/12 13:00:15;;;;;;;2.70;1.80;;;;;;;17.44;65.94;102106.31;5077075;28;20033;-81
2021/12/12 13:03:05;;;;;;;2.90;1.60;;;;;;;17.43;65.79;102105.47;5075353;28;20035;-81
2021/12/12 13:05:59;;;;;;;3.85;1.77;;;;;;;17.40;67.01;102109.78;5086782;28;20025;-82
2021/12/12 13:08:46;;;;;;;2.70;1.80;;;;;;;17.40;66.78;102117.56;5084722;28;20020;-82
2021/12/12 13:11:34;;;;;;;4.95;1.80;;;;;;;17.39;66.17;102119.28;5080638;28;20267;-81
2021/12/12 13:14:47;;;;;;;3.05;1.67;;;;;;;17.42;66.67;102124.53;5065247;28;20367;-81
2021/12/12 13:17:40;;;;;;;3.15;1.50;;;;;;;17.42;66.67;102126.25;5082841;28;20024;-82
2021/12/12 13:20:35;;;;;;;4.90;2.30;;;;;;;17.39;66.47;102124.50;5096134;28;20017;-84
2021/12/12 13:23:16;;;;;;;2.78;1.75;;;;;;;17.38;66.44;102133.16;5096051;28;20039;-82
2021/12/12 13:26:04;;;;;;;3.38;1.55;;;;;;;17.39;66.19;102132.28;5097651;28;20035;-82
2021/12/12 13:29:14;;;;;;;2.80;1.60;;;;;;;17.43;66.41;102138.41;5097061;28;20121;-83
2021/12/12 13:31:53;;;;;;;4.72;1.60;;;;;;;17.42;66.42;102128.84;5096838;28;20060;-83
2021/12/12 13:34:41;;;;;;;2.83;1.63;;;;;;;17.46;66.39;102135.84;5093885;28;20393;-83
2021/12/12 13:37:32;;;;;;;5.38;1.80;;;;;;;17.44;66.52;102130.63;5092649;28;20052;-84
2021/12/12 13:40:19;;;;;;;3.17;1.52;;;;;;;17.47;65.99;102137.59;5085803;28;20044;-82
2021/12/12 13:43:22;;;;;;;3.40;1.70;;;;;;;17.48;66.07;102129.81;5088996;28;20028;-82
2021/12/12 13:46:32;;;;;;;2.53;1.50;;;;;;;17.48;66.05;102137.63;5091201;28;20009;-83
2021/12/12 13:49:09;;;;;;;3.00;1.58;;;;;;;17.51;66.23;102135.88;5090164;28;20021;-84
2021/12/12 13:51:34;;;;;;;3.50;1.55;;;;;;;17.51;65.98;102138.50;5089654;28;20025;-83
2021/12/12 13:54:12;;;;;;;3.05;1.50;;;;;;;17.52;66.45;102141.13;5091176;28;20058;-82
2021/12/12 13:57:21;;;;;;;4.57;1.80;;;;;;;17.51;65.66;102139.38;5092554;28;20020;-83
2021/12/12 14:00:00;;;;;;;3.45;1.58;;;;;;;17.53;66.26;102135.06;5015646;28;20037;-83
2021/12/12 14:02:26;;;;;;;5.00;1.50;;;;;;;17.54;65.92;102138.53;5072207;28;20060;-82
2021/12/12 14:05:13;;;;;;;3.05;1.50;;;;;;;17.59;66.44;102142.94;5091152;28;20078;-82
2021/12/12 14:07:53;;;;;;;3.42;1.58;;;;;;;17.59;66.62;102149.88;5086348;28;20020;-82
2021/12/12 14:10:26;;;;;;;2.75;1.42;;;;;;;17.58;65.90;102146.41;5085247;28;20029;-83
2021/12/12 14:13:09;;;;;;;4.35;1.45;;;;;;;17.59;65.56;102144.66;5084601;28;20024;-82
2021/12/12 14:15:38;;;;;;;3.00;1.50;;;;;;;17.60;65.76;102144.69;5084786;28;20048;-82
2021/12/12 14:18:06;;;;;;;2.13;1.50;;;;;;;17.61;65.64;102145.56;5085243;28;20063;-83
2021/12/12 14:20:44;;;;;;;3.10;1.55;;;;;;;17.62;65.86;102152.53;5084719;28;20031;-83
2021/12/12 14:23:15;;;;;;;2.72;1.40;;;;;;;17.62;65.69;102148.19;5090482;28;20036;-81
2021/12/12 14:25:44;;;;;;;2.75;1.38;;;;;;;17.63;65.65;102144.72;5079033;28;20044;-81
2021/12/12 14:28:10;;;;;;;2.63;1.45;;;;;;;17.63;65.58;102152.53;5075506;28;20016;-77
2021/12/12 14:30:40;;;;;;;2.25;1.35;;;;;;;17.63;65.51;102154.25;5062456;28;20096;-82
2021/12/12 14:33:12;;;;;;;2.97;1.60;;;;;;;17.62;65.61;102155.13;5088881;28;20017;-81
2021/12/12 14:35:45;;;;;;;2.28;1.35;;;;;;;17.61;65.36;102167.25;5087715;28;20035;-82
2021/12/12 14:38:14;;;;;;;2.33;1.40;;;;;;;17.61;65.52;102164.66;5083463;28;20045;-81
2021/12/12 14:40:46;;;;;;;2.00;1.30;;;;;;;17.63;65.48;102167.28;5046297;28;20017;-81
2021/12/12 14:43:58;;;;;;;2.45;1.50;;;;;;;17.62;65.48;102163.81;5048678;28;20040;-82
2021/12/12 14:46:29;;;;;;;2.67;1.40;;;;;;;17.63;65.55;102173.34;5045259;28;20123;-82
2021/12/12 14:49:00;;;;;;;4.03;1.65;;;;;;;17.64;65.66;102182.06;5047662;28;20021;-82
2021/12/12 14:51:33;;;;;;;1.75;1.17;;;;;;;17.63;65.26;102182.91;5046407;28;21276;-78
2021/12/12 14:54:12;;;;;;;2.63;1.23;;;;;;;17.63;65.55;102180.28;5035599;28;20032;-78
2021/12/12 14:56:43;;;;;;;2.28;1.30;;;;;;;17.64;65.48;102192.47;5053238;28;20272;-78
2021/12/12 14:59:11;;;;;;;2.05;1.10;;;;;;;17.64;65.43;102189.88;5035436;28;20021;-78
2021/12/12 15:01:51;;;;;;;2.13;1.33;;;;;;;17.63;65.51;102180.28;5035374;28;20025;-80
2021/12/12 15:04:31;;;;;;;3.67;1.30;;;;;;;17.64;65.47;102195.06;5035595;28;20056;-78
2021/12/12 15:07:09;;;;;;;3.10;1.35;;;;;;;17.63;65.36;102198.50;5053360;28;20029;-78
2021/12/12 15:09:37;;;;;;;2.58;1.38;;;;;;;17.64;65.24;102202.88;5035394;28;20379;-78
2021/12/12 15:12:15;;;;;;;3.10;1.10;;;;;;;17.65;65.40;102202.00;5053820;28;20453;-78
2021/12/12 15:14:47;;;;;;;2.20;1.27;;;;;;;17.64;65.30;102206.34;5053439;28;20017;-78
2021/12/12 15:17:16;;;;;;;2.60;1.35;;;;;;;17.63;65.59;102212.41;5036507;28;20055;-77
2021/12/12 15:19:48;;;;;;;2.45;1.10;;;;;;;17.65;65.71;102209.81;5035450;28;20071;-78
2021/12/12 15:22:15;;;;;;;1.95;1.10;;;;;;;17.64;65.40;102216.75;5053709;28;20028;-78
2021/12/12 15:24:54;;;;;;;5.65;1.60;;;;;;;17.63;65.39;102217.59;5036652;28;20031;-79
2021/12/12 15:27:43;;;;;;;2.40;1.30;;;;;;;17.65;65.49;102215.03;5039238;28;20055;-79
2021/12/12 15:30:13;;;;;;;2.67;1.20;;;;;;;17.65;65.48;102220.22;5057167;28;20024;-78
2021/12/12 15:32:49;;;;;;;2.72;1.15;;;;;;;17.64;65.56;102223.72;5052688;28;20029;-84
2021/12/12 15:35:19;;;;;;;2.22;1.17;;;;;;;17.62;65.65;102218.47;5057682;28;20025;-79
2021/12/12 15:37:49;;;;;;;2.92;1.20;;;;;;;17.64;65.34;102227.19;5040240;28;20028;-79
2021/12/12 15:40:22;;;;;;;2.45;1.08;;;;;;;17.65;65.39;102222.84;5023663;28;20487;-78
2021/12/12 15:42:54;;;;;;;2.88;1.20;;;;;;;17.65;65.30;102223.69;5040439;28;20028;-79
2021/12/12 15:45:25;;;;;;;2.25;1.30;;;;;;;17.65;65.20;102236.72;5041234;28;20029;-78
2021/12/12 15:47:52;;;;;;;2.78;1.30;;;;;;;17.64;65.38;102231.50;5038897;28;20205;-78
2021/12/12 15:50:38;;;;;;;2.90;1.23;;;;;;;17.65;65.31;102241.94;5038705;28;20032;-78
2021/12/12 15:53:09;;;;;;;2.20;1.60;;;;;;;17.66;65.32;102235.88;5038381;28;20067;-78
2021/12/12 15:55:42;;;;;;;2.55;1.30;;;;;;;17.65;65.24;102244.53;5039267;28;20434;-78
2021/12/12 15:58:21;;;;;;;2.30;1.38;;;;;;;17.65;65.37;102239.31;5038374;28;20027;-78
2021/12/12 16:00:50;;;;;;;2.00;1.40;;;;;;;17.63;65.43;102238.44;5056428;28;20111;-78
2021/12/12 16:03:20;;;;;;;3.13;1.30;;;;;;;17.63;65.40;102235.81;5038253;28;20025;-79
2021/12/12 16:05:59;;;;;;;3.53;1.60;;;;;;;17.65;65.49;102233.25;5038262;28;20032;-78
2021/12/12 16:08:28;;;;;;;2.90;1.40;;;;;;;17.65;65.19;102233.25;5038286;28;20356;-78
2021/12/12 16:10:57;;;;;;;2.58;1.40;;;;;;;17.65;65.29;102236.72;5038296;28;20086;-78
2021/12/12 16:13:33;;;;;;;3.42;1.48;;;;;;;17.65;65.18;102244.53;5038725;28;20045;-78
2021/12/12 16:16:21;;;;;;;2.92;1.50;;;;;;;17.65;65.26;102249.72;5038321;28;20032;-78
2021/12/12 16:18:58;;;;;;;4.85;1.83;;;;;;;17.65;65.48;102247.13;5039009;28;20106;-77
2021/12/12 16:21:24;;;;;;;4.80;1.75;;;;;;;17.64;65.41;102241.94;5038666;28;20183;-77
2021/12/12 16:23:54;;;;;;;3.58;1.55;;;;;;;17.66;65.08;102245.44;5005774;28;20036;-78
2021/12/12 16:26:27;;;;;;;2.58;1.38;;;;;;;17.65;64.92;102244.53;5056527;28;20025;-78
2021/12/12 16:28:57;;;;;;;3.25;1.70;;;;;;;17.66;65.81;102248.91;5038641;28;20518;-79